Flight Track Log - Related Links

Times and Time Zones

All times are in EDT time to prevent confusion due to time zone crossing. See the DAL2236 flight status page for this flight to view local times or setup timezone preferences in your user account.


Time Position Orientation Groundspeed Altitude Reporting Facility
EDT Latitude Longitude Course Direction KTS MPH feet Rate Location/Type
Fri 05:16:58 PM 39.8667 -75.2833 270° West 169 194 1,100  Level Philadelphia TRACON
Fri 05:17:30 PM 39.8558 -75.3211 250° West 225 259 1,600 1,385 Climbing FAA TRACON SMA TRACON (SMA)
Fri 05:17:50 PM 39.8533 -75.3475 263° West 243 280 2,300 3,000 Climbing FAA TRACON SMA TRACON (SMA)
Fri 05:18:10 PM 39.8506 -75.3800 264° West 247 284 3,600 4,050 Climbing FAA TRACON SMA TRACON (SMA)
Fri 05:18:30 PM 39.8486 -75.4119 265° West 248 285 5,000 3,750 Climbing FAA TRACON SMA TRACON (SMA)
Fri 05:18:50 PM 39.8506 -75.4367 276° West 248 285 6,100 3,450 Climbing FAA TRACON SMA TRACON (SMA)
Fri 05:19:10 PM 39.8575 -75.4653 288° West 255 293 7,300 3,300 Climbing FAA TRACON SMA TRACON (SMA)
Fri 05:19:30 PM 39.8672 -75.4969 292° West 261 300 8,300 2,850 Climbing FAA TRACON SMA TRACON (SMA)
Fri 05:19:50 PM 39.8747 -75.5247 289° West 265 305 9,200 2,850 Climbing FAA TRACON SMA TRACON (SMA)
Fri 05:20:00 PM 39.9000 -75.8110 270° West  Level FlightAware Approximate
Fri 05:20:10 PM 39.8847 -75.5564 292° West 266 306 10,200  Level FAA TRACON SMA TRACON (SMA)
Fri 05:20:31 PM 39.8933 -75.5883 289° West 274 315 10,600 1,200 Climbing FAA TRACON SMA TRACON (SMA)
Fri 05:20:50 PM 39.9028 -75.6217 290° West 309 356 11,000 1,538 Climbing FAA TRACON SMA TRACON (SMA)
Fri 05:21:00 PM 39.9000 -75.9591 270° West  Level FlightAware Approximate
Fri 05:21:10 PM 39.9136 -75.6603 290° West 325 374 11,600  Level FAA TRACON SMA TRACON (SMA)
Fri 05:21:30 PM 39.9172 -75.6992 277° West 317 365 12,500 2,400 Climbing FAA TRACON SMA TRACON (SMA)
Fri 05:21:50 PM 39.9175 -75.7344 271° West 320 368 13,200 1,800 Climbing FAA TRACON SMA TRACON (SMA)
Fri 05:22:00 PM 39.9000 -76.1072 270° West  Level FlightAware Approximate
Fri 05:22:10 PM 39.9158 -75.7800 267° West 328 377 13,700  Level FAA TRACON SMA TRACON (SMA)
Fri 05:22:30 PM 39.9147 -75.8183 268° West 340 391 14,000 750 Climbing FAA TRACON SMA TRACON (SMA)
Fri 05:22:50 PM 39.9150 -75.8503 271° West 351 404 14,200 1,650 Climbing FAA TRACON SMA TRACON (SMA)
Fri 05:23:10 PM 39.9131 -75.8981 267° West 369 425 15,100 3,750 Climbing FAA TRACON SMA TRACON (SMA)
Fri 05:23:30 PM 39.9122 -75.9503 269° West 359 413 16,700 3,300 Climbing FAA TRACON SMA TRACON (SMA)
Fri 05:23:50 PM 39.9117 -75.9889 269° West 353 406 17,300 1,317 Climbing FAA TRACON SMA TRACON (SMA)
Fri 05:24:11 PM 39.9106 -76.0178 267° West 350 403 17,600 439 Climbing FAA TRACON SMA TRACON (SMA)
Fri 05:24:31 PM 39.9106 -76.0178 159° South 350 403 17,600 2,033 Level FAA TRACON SMA TRACON (SMA)
Fri 05:26:12 PM 39.9092 -76.2944 270° West 363 418 21,700 1,938 Climbing New York Center
Fri 05:27:12 PM 39.9150 -76.4331 273° West 368 423 22,800 1,271 Climbing New York Center
Fri 05:28:10 PM 39.9206 -76.5742 273° West 378 435 24,200 1,220 Climbing New York Center
Fri 05:29:10 PM 39.9178 -76.7147 269° West 391 450 25,200 909 Climbing New York Center
Fri 05:30:55 PM 39.8272 -76.9100 239° Southwest 368 423 26,700 873 Climbing Washington Center
Fri 05:31:55 PM 39.7717 -77.0278 238° Southwest 381 438 27,600 1,200 Climbing Washington Center
Fri 05:32:55 PM 39.7161 -77.1481 239° Southwest 389 448 29,100 1,200 Climbing Washington Center
Fri 05:33:55 PM 39.6625 -77.2656 239° Southwest 389 448 30,000 450 Climbing Washington Center
Fri 05:34:55 PM 39.6000 -77.3986 239° Southwest 389 448 30,000  Level Washington Center
Fri 05:35:55 PM 39.5442 -77.5183 239° Southwest 389 448 30,000  Level Washington Center
Fri 05:36:55 PM 39.4881 -77.6353 238° Southwest 389 448 30,000  Level Washington Center
Fri 05:37:55 PM 39.4317 -77.7519 238° Southwest 389 448 30,000  Level Washington Center
Fri 05:38:55 PM 39.3753 -77.8711 239° Southwest 389 448 30,000  Level Washington Center
Fri 05:40:00 PM 39.3239 -77.9939 242° Southwest  Level FlightAware Approximate
Fri 05:40:55 PM 39.2808 -78.1200 242° Southwest 389 448 30,000  Level Washington Center
Fri 05:41:55 PM 39.2281 -78.2442 241° Southwest 394 453 30,000  Level Washington Center
Fri 05:42:55 PM 39.1794 -78.3708 244° Southwest 394 453 30,000  Level Washington Center
Fri 05:43:55 PM 39.1286 -78.4947 242° Southwest 394 453 30,000  Level Washington Center
Fri 05:44:55 PM 39.0794 -78.6211 243° Southwest 394 453 30,000  Level Washington Center
Fri 05:45:55 PM 39.0283 -78.7447 242° Southwest 399 459 30,000  Level Washington Center
Fri 05:46:55 PM 38.9792 -78.8681 243° Southwest 399 459 30,000  Level Washington Center
Fri 05:47:55 PM 38.9278 -78.9911 242° Southwest 399 459 30,000  Level Washington Center
Fri 05:48:55 PM 38.8764 -79.1169 242° Southwest 399 459 30,000  Level Washington Center
Fri 05:49:55 PM 38.8328 -79.2481 247° West 405 466 30,000  Level Washington Center
Fri 05:50:55 PM 38.8097 -79.3881 258° West 405 466 30,000  Level Washington Center
Fri 05:51:55 PM 38.7842 -79.5306 257° West 405 466 30,000  Level Washington Center
Fri 05:52:55 PM 38.7611 -79.6653 258° West 418 481 30,000  Level Washington Center
Fri 05:53:55 PM 38.7356 -79.8022 257° West 418 481 30,000  Level Washington Center
Fri 05:54:55 PM 38.7075 -79.9414 256° West 413 475 30,000  Level Washington Center
Fri 05:55:55 PM 38.6811 -80.0889 257° West 407 468 30,000  Level Washington Center
Fri 05:57:16 PM 38.6425 -80.2703 255° West 400 460 30,000  Level Indianapolis Center
Fri 05:58:18 PM 38.6158 -80.4092 256° West 401 461 30,000  Level Indianapolis Center
Fri 05:59:20 PM 38.5914 -80.5433 257° West 388 447 30,000  Level Indianapolis Center
Fri 06:00:22 PM 38.5656 -80.6789 256° West 390 449 30,000  Level Indianapolis Center
Fri 06:01:24 PM 38.5394 -80.8114 256° West 384 442 30,000  Level Indianapolis Center
Fri 06:02:26 PM 38.5153 -80.9414 257° West 377 434 30,000  Level Indianapolis Center
Fri 06:03:28 PM 38.4883 -81.0728 255° West 379 436 30,000  Level Indianapolis Center
Fri 06:04:30 PM 38.4628 -81.2067 256° West 384 442 30,000  Level Indianapolis Center
Fri 06:05:32 PM 38.4300 -81.3686 256° West 388 447 30,000  Level Indianapolis Center
Fri 06:06:34 PM 38.4039 -81.5036 256° West 388 447 30,000  Level Indianapolis Center
Fri 06:07:36 PM 38.3778 -81.6369 256° West 385 443 30,000  Level Indianapolis Center
Fri 06:08:38 PM 38.3417 -81.7619 250° West 383 441 30,000  Level Indianapolis Center
Fri 06:09:40 PM 38.2572 -81.8122 205° Southwest 346 398 30,000  Level Indianapolis Center
Fri 06:10:42 PM 38.1669 -81.8511 199° South 343 395 30,000  Level Indianapolis Center
Fri 06:11:44 PM 38.0750 -81.8911 199° South 348 400 30,000  Level Indianapolis Center
Fri 06:12:46 PM 37.9836 -81.9297 198° South 346 398 30,000  Level Indianapolis Center
Fri 06:13:48 PM 37.8756 -81.9767 199° South 342 394 30,000  Level Indianapolis Center
Fri 06:14:50 PM 37.7858 -82.0156 199° South 345 397 30,000  Level Indianapolis Center
Fri 06:15:52 PM 37.6956 -82.0550 199° South 343 395 30,000  Level Indianapolis Center
Fri 06:16:54 PM 37.6033 -82.0950 199° South 347 399 30,000  Level Indianapolis Center
Fri 06:17:56 PM 37.4964 -82.1403 199° South 346 398 30,000  Level Indianapolis Center
Fri 06:18:58 PM 37.4044 -82.1806 199° South 349 402 30,000  Level Indianapolis Center
Fri 06:20:00 PM 37.3133 -82.2200 199° South 345 397 30,000  Level Indianapolis Center
Fri 06:20:41 PM 37.2381 -82.2506 198° South 365 420 30,000  Level Atlanta Center
Fri 06:21:41 PM 37.1531 -82.2861 198° South 357 411 30,000  Level Atlanta Center
Fri 06:22:41 PM 37.0597 -82.3272 199° South 357 411 30,000  Level Atlanta Center
Fri 06:23:41 PM 36.9664 -82.3658 198° South 357 411 30,000  Level Atlanta Center
Fri 06:24:08 PM 36.9386 -82.3786 200° South 356 410 30,000  Level Indianapolis Center
Fri 06:24:41 PM 36.8711 -82.4042 197° South 357 411 30,000  Level Atlanta Center
Fri 06:25:41 PM 36.7778 -82.4422 198° South 362 417 30,000  Level Atlanta Center
Fri 06:26:41 PM 36.6803 -82.4831 199° South 362 417 30,000  Level Atlanta Center
Fri 06:27:41 PM 36.5892 -82.5236 200° South 362 417 30,000  Level Atlanta Center
Fri 06:28:41 PM 36.4936 -82.5642 199° South 367 422 30,000  Level Atlanta Center
Fri 06:29:41 PM 36.3961 -82.6047 199° South 367 422 30,000  Level Atlanta Center
Fri 06:30:41 PM 36.3028 -82.6450 199° South 367 422 30,000  Level Atlanta Center
Fri 06:31:41 PM 36.2175 -82.6800 198° South 367 422 30,000  Level Atlanta Center
Fri 06:32:41 PM 36.1200 -82.7200 198° South 367 422 30,000  Level Atlanta Center
Fri 06:33:41 PM 36.0244 -82.7575 198° South 367 422 30,000  Level Atlanta Center
Fri 06:34:41 PM 35.9269 -82.7975 198° South 367 422 30,000  Level Atlanta Center
Fri 06:35:41 PM 35.8314 -82.8400 200° South 367 422 30,000  Level Atlanta Center
Fri 06:36:41 PM 35.7317 -82.8800 198° South 372 428 30,000 -50 Level Atlanta Center
Fri 06:37:41 PM 35.6317 -82.9197 198° South 378 435 29,900 -650 Descending Atlanta Center
Fri 06:38:41 PM 35.5319 -82.9592 198° South 383 441 28,700 -1,250 Descending Atlanta Center
Fri 06:39:41 PM 35.4322 -82.9989 198° South 388 447 27,400 -1,300 Descending Atlanta Center
Fri 06:40:41 PM 35.3303 -83.0433 200° South 383 441 26,100 -1,150 Descending Atlanta Center
Fri 06:41:41 PM 35.2347 -83.0903 202° Southwest 383 441 25,100 -1,050 Descending Atlanta Center
Fri 06:42:41 PM 35.1536 -83.1419 208° Southwest 359 413 24,000 -550 Descending Atlanta Center
Fri 06:43:41 PM 35.0747 -83.1961 209° Southwest 338 389 24,000 -500 Level Atlanta Center
Fri 06:44:41 PM 34.9958 -83.2528 210° Southwest 331 381 23,000 -500 Descending Atlanta Center
Fri 06:45:41 PM 34.9192 -83.3067 210° Southwest 326 375 23,000 -500 Level Atlanta Center
Fri 06:46:41 PM 34.8381 -83.3581 207° Southwest 326 375 22,000 -500 Descending Atlanta Center
Fri 06:47:41 PM 34.7653 -83.4042 207° Southwest 321 369 22,000  Level Atlanta Center
Fri 06:48:41 PM 34.6903 -83.4553 209° Southwest 316 364 22,000  Level Atlanta Center
Fri 06:49:41 PM 34.6050 -83.5089 207° Southwest 316 364 22,000 -350 Level Atlanta Center
Fri 06:50:41 PM 34.5300 -83.5547 207° Southwest 310 357 21,300 -950 Descending Atlanta Center
Fri 06:51:41 PM 34.4531 -83.6081 210° Southwest 305 351 20,100 -1,500 Descending Atlanta Center
Fri 06:52:41 PM 34.3697 -83.6614 208° Southwest 326 375 18,300 -2,150 Descending Atlanta Center
Fri 06:53:41 PM 34.2925 -83.7119 208° Southwest 326 375 15,800 -2,450 Descending Atlanta Center
Fri 06:54:41 PM 34.2217 -83.7600 209° Southwest 313 360 13,400 -1,900 Descending Atlanta Center
Fri 06:55:41 PM 34.1489 -83.8078 209° Southwest 308 354 12,000 -750 Descending Atlanta Center
Fri 06:56:41 PM 34.0800 -83.8533 209° Southwest 289 333 11,900 -800 Descending Atlanta Center
Fri 06:57:41 PM 34.0281 -83.9058 220° Southwest 278 320 10,400 -983 Descending Atlanta Center
Fri 06:58:37 PM 33.9667 -83.9500 211° Southwest 281 323 10,000 -197 Descending Atlanta TRACON
Fri 06:59:43 PM 33.8833 -83.9667 189° South 293 337 10,000 -476 Level Atlanta TRACON
Fri 07:00:43 PM 33.8000 -83.9833 189° South 260 299 9,000 -1,050 Descending Atlanta TRACON
Fri 07:01:43 PM 33.7333 -84.0000 192° South 244 281 7,900 -952 Descending Atlanta TRACON
Fri 07:02:49 PM 33.6667 -84.0167 192° South 240 276 7,000 -500 Descending Atlanta TRACON
Fri 07:03:43 PM 33.6333 -84.0667 231° Southwest 209 241 6,900 -778 Descending Atlanta TRACON
Fri 07:04:37 PM 33.6333 -84.1167 270° West 186 214 5,600 -1,105 Descending Atlanta TRACON
Fri 07:05:37 PM 33.6333 -84.1833 270° West 194 223 4,800 -950 Descending Atlanta TRACON
Fri 07:06:37 PM 33.6333 -84.2500 270° West 187 215 3,700 -1,000 Descending Atlanta TRACON
Fri 07:07:37 PM 33.6333 -84.3000 270° West 165 190 2,800 -900 Descending Atlanta TRACON

Login

Don't have an account? Register now (free) for customized features, flight alerts, and more!